sensor_id;sensor_type;location;lat;lon;timestamp;pressure;altitude;pressure_sealevel;temperature;humidity
15263;BME280;7733;51.554;13.590;2023-02-18T00:00:20;100626.00;;;9.37;79.78
15263;BME280;7733;51.554;13.590;2023-02-18T00:02:48;100620.78;;;9.34;80.29
15263;BME280;7733;51.554;13.590;2023-02-18T00:05:14;100622.53;;;9.35;79.58
15263;BME280;7733;51.554;13.590;2023-02-18T00:07:40;100607.75;;;9.25;78.90
15263;BME280;7733;51.554;13.590;2023-02-18T00:10:12;100631.31;;;9.27;78.87
15263;BME280;7733;51.554;13.590;2023-02-18T00:12:38;100634.81;;;9.21;79.09
15263;BME280;7733;51.554;13.590;2023-02-18T00:15:05;100634.78;;;9.27;77.70
15263;BME280;7733;51.554;13.590;2023-02-18T00:17:31;100639.19;;;9.18;77.59
15263;BME280;7733;51.554;13.590;2023-02-18T00:19:57;100642.72;;;9.10;78.76
15263;BME280;7733;51.554;13.590;2023-02-18T00:22:24;100643.53;;;9.17;78.80
15263;BME280;7733;51.554;13.590;2023-02-18T00:24:50;100637.50;;;9.00;77.87
15263;BME280;7733;51.554;13.590;2023-02-18T00:27:16;100655.78;;;9.10;77.72
15263;BME280;7733;51.554;13.590;2023-02-18T00:29:41;100642.69;;;9.12;78.69
15263;BME280;7733;51.554;13.590;2023-02-18T00:32:07;100648.81;;;9.11;77.98
15263;BME280;7733;51.554;13.590;2023-02-18T00:34:33;100652.31;;;9.01;78.63
15263;BME280;7733;51.554;13.590;2023-02-18T00:36:59;100652.34;;;8.98;77.78
15263;BME280;7733;51.554;13.590;2023-02-18T00:39:24;100655.78;;;9.10;78.73
15263;BME280;7733;51.554;13.590;2023-02-18T00:41:50;100661.94;;;8.99;77.74
15263;BME280;7733;51.554;13.590;2023-02-18T00:44:16;100654.06;;;9.05;78.32
15263;BME280;7733;51.554;13.590;2023-02-18T00:46:42;100656.69;;;9.03;78.37
15263;BME280;7733;51.554;13.590;2023-02-18T00:49:08;100652.41;;;8.86;78.47
15263;BME280;7733;51.554;13.590;2023-02-18T00:51:35;100666.34;;;8.75;78.93
15263;BME280;7733;51.554;13.590;2023-02-18T00:54:00;100656.69;;;8.96;77.74
15263;BME280;7733;51.554;13.590;2023-02-18T00:56:26;100655.88;;;8.88;78.31
15263;BME280;7733;51.554;13.590;2023-02-18T00:58:52;100668.09;;;8.86;77.26
15263;BME280;7733;51.554;13.590;2023-02-18T01:01:19;100666.34;;;8.84;78.76
15263;BME280;7733;51.554;13.590;2023-02-18T01:03:45;100664.59;;;8.90;78.33
15263;BME280;7733;51.554;13.590;2023-02-18T01:06:12;100659.41;;;8.68;78.08
15263;BME280;7733;51.554;13.590;2023-02-18T01:08:39;100657.66;;;8.67;78.92
15263;BME280;7733;51.554;13.590;2023-02-18T01:11:07;100666.38;;;8.66;78.57
15263;BME280;7733;51.554;13.590;2023-02-18T01:13:34;100658.50;;;8.78;78.26
15263;BME280;7733;51.554;13.590;2023-02-18T01:16:00;100669.84;;;8.82;77.71
15263;BME280;7733;51.554;13.590;2023-02-18T01:18:26;100665.47;;;8.78;78.58
15263;BME280;7733;51.554;13.590;2023-02-18T01:20:52;100663.78;;;8.65;78.13
15263;BME280;7733;51.554;13.590;2023-02-18T01:23:19;100664.66;;;8.53;78.05
15263;BME280;7733;51.554;13.590;2023-02-18T01:25:45;100662.03;;;8.48;77.69
15263;BME280;7733;51.554;13.590;2023-02-18T01:28:13;100662.03;;;8.54;78.06
15263;BME280;7733;51.554;13.590;2023-02-18T01:30:40;100658.53;;;8.54;77.38
15263;BME280;7733;51.554;13.590;2023-02-18T01:33:07;100673.34;;;8.67;77.14
15263;BME280;7733;51.554;13.590;2023-02-18T01:35:37;100673.34;;;8.67;77.28
15263;BME280;7733;51.554;13.590;2023-02-18T01:38:03;100683.84;;;8.43;77.06
15263;BME280;7733;51.554;13.590;2023-02-18T01:40:29;100679.44;;;8.57;76.87
15263;BME280;7733;51.554;13.590;2023-02-18T01:42:55;100687.28;;;8.57;76.80
15263;BME280;7733;51.554;13.590;2023-02-18T01:45:49;100682.06;;;8.66;76.77
15263;BME280;7733;51.554;13.590;2023-02-18T01:51:12;100679.47;;;8.49;77.21
15263;BME280;7733;51.554;13.590;2023-02-18T01:53:51;100682.09;;;8.51;77.07
15263;BME280;7733;51.554;13.590;2023-02-18T01:56:27;100687.31;;;8.51;78.00
15263;BME280;7733;51.554;13.590;2023-02-18T01:58:57;100678.59;;;8.52;77.19
15263;BME280;7733;51.554;13.590;2023-02-18T02:01:26;100696.88;;;8.38;77.71
15263;BME280;7733;51.554;13.590;2023-02-18T02:03:52;100697.75;;;8.36;77.17
15263;BME280;7733;51.554;13.590;2023-02-18T02:06:21;100706.47;;;8.38;76.50
15263;BME280;7733;51.554;13.590;2023-02-18T02:08:50;100706.47;;;8.41;75.71
15263;BME280;7733;51.554;13.590;2023-02-18T02:17:03;100702.09;;;8.29;76.33
15263;BME280;7733;51.554;13.590;2023-02-18T02:26:34;100699.50;;;8.21;76.14
15263;BME280;7733;51.554;13.590;2023-02-18T02:32:08;100695.97;;;8.19;75.77
15263;BME280;7733;51.554;13.590;2023-02-18T02:37:36;100701.22;;;8.32;74.84
15263;BME280;7733;51.554;13.590;2023-02-18T02:40:33;100693.41;;;8.24;74.15
15263;BME280;7733;51.554;13.590;2023-02-18T02:44:26;100695.97;;;8.13;75.36
15263;BME280;7733;51.554;13.590;2023-02-18T02:46:35;100689.91;;;8.23;73.98
15263;BME280;7733;51.554;13.590;2023-02-18T02:49:27;100694.25;;;8.21;74.22
15263;BME280;7733;51.554;13.590;2023-02-18T02:52:32;100692.50;;;8.31;74.31
15263;BME280;7733;51.554;13.590;2023-02-18T02:55:11;100689.03;;;8.26;74.06
15263;BME280;7733;51.554;13.590;2023-02-18T02:57:48;100680.31;;;8.06;74.36
15263;BME280;7733;51.554;13.590;2023-02-18T03:00:17;100679.44;;;8.14;73.84
15263;BME280;7733;51.554;13.590;2023-02-18T03:11:46;100675.94;;;8.18;73.11
15263;BME280;7733;51.554;13.590;2023-02-18T03:14:30;100673.34;;;8.28;72.79
15263;BME280;7733;51.554;13.590;2023-02-18T03:17:10;100664.66;;;8.26;72.67
15263;BME280;7733;51.554;13.590;2023-02-18T03:19:46;100669.00;;;8.36;72.80
15263;BME280;7733;51.554;13.590;2023-02-18T03:22:27;100658.53;;;8.28;72.81
15263;BME280;7733;51.554;13.590;2023-02-18T03:24:56;100664.66;;;8.35;72.64
15263;BME280;7733;51.554;13.590;2023-02-18T03:27:31;100665.53;;;8.44;72.12
15263;BME280;7733;51.554;13.590;2023-02-18T03:30:13;100663.81;;;8.43;72.36
15263;BME280;7733;51.554;13.590;2023-02-18T03:32:41;100659.44;;;8.48;71.28
15263;BME280;7733;51.554;13.590;2023-02-18T03:35:15;100664.66;;;8.38;71.27
15263;BME280;7733;51.554;13.590;2023-02-18T03:37:49;100661.16;;;8.40;71.05
15263;BME280;7733;51.554;13.590;2023-02-18T03:40:18;100661.19;;;8.48;71.45
15263;BME280;7733;51.554;13.590;2023-02-18T03:42:44;100666.41;;;8.48;71.06
15263;BME280;7733;51.554;13.590;2023-02-18T03:45:10;100661.19;;;8.49;70.76
15263;BME280;7733;51.554;13.590;2023-02-18T03:47:36;100659.41;;;8.61;70.20
15263;BME280;7733;51.554;13.590;2023-02-18T03:50:02;100656.81;;;8.53;70.22
15263;BME280;7733;51.554;13.590;2023-02-18T03:52:28;100648.06;;;8.59;69.94
15263;BME280;7733;51.554;13.590;2023-02-18T03:54:54;100655.06;;;8.64;69.19
15263;BME280;7733;51.554;13.590;2023-02-18T03:57:19;100661.13;;;8.69;69.12
15263;BME280;7733;51.554;13.590;2023-02-18T03:59:45;100667.25;;;8.61;68.59
15263;BME280;7733;51.554;13.590;2023-02-18T04:02:11;100655.03;;;8.69;68.35
15263;BME280;7733;51.554;13.590;2023-02-18T04:04:36;100661.13;;;8.77;68.95
15263;BME280;7733;51.554;13.590;2023-02-18T04:07:02;100654.13;;;8.90;68.54
15263;BME280;7733;51.554;13.590;2023-02-18T04:09:28;100668.97;;;8.74;68.39
15263;BME280;7733;51.554;13.590;2023-02-18T04:11:54;100661.09;;;8.92;67.79
15263;BME280;7733;51.554;13.590;2023-02-18T04:14:19;100655.00;;;8.76;68.83
15263;BME280;7733;51.554;13.590;2023-02-18T04:16:45;100653.28;;;8.84;68.34
15263;BME280;7733;51.554;13.590;2023-02-18T04:19:11;100650.63;;;8.88;68.86
15263;BME280;7733;51.554;13.590;2023-02-18T04:21:36;100659.38;;;8.83;68.82
15263;BME280;7733;51.554;13.590;2023-02-18T04:24:02;100662.84;;;8.79;68.83
15263;BME280;7733;51.554;13.590;2023-02-18T04:26:28;100655.84;;;8.95;69.29
15263;BME280;7733;51.554;13.590;2023-02-18T04:28:54;100651.53;;;8.74;69.48
15263;BME280;7733;51.554;13.590;2023-02-18T04:31:20;100656.75;;;8.85;69.90
15263;BME280;7733;51.554;13.590;2023-02-18T04:33:45;100654.13;;;8.90;69.51
15263;BME280;7733;51.554;13.590;2023-02-18T04:36:11;100661.06;;;8.97;69.78
15263;BME280;7733;51.554;13.590;2023-02-18T04:38:37;100668.03;;;8.95;69.70
15263;BME280;7733;51.554;13.590;2023-02-18T04:41:03;100679.34;;;9.07;69.39
15263;BME280;7733;51.554;13.590;2023-02-18T04:43:29;100675.00;;;9.08;70.13
15263;BME280;7733;51.554;13.590;2023-02-18T04:45:54;100679.34;;;9.07;70.10
15263;BME280;7733;51.554;13.590;2023-02-18T04:48:20;100675.81;;;9.18;70.01
15263;BME280;7733;51.554;13.590;2023-02-18T04:50:46;100682.84;;;9.06;70.57
15263;BME280;7733;51.554;13.590;2023-02-18T04:53:11;100672.31;;;9.19;70.73
15263;BME280;7733;51.554;13.590;2023-02-18T04:55:37;100678.44;;;9.19;70.62
15263;BME280;7733;51.554;13.590;2023-02-18T04:58:03;100675.81;;;9.24;71.22
15263;BME280;7733;51.554;13.590;2023-02-18T05:00:28;100668.84;;;9.21;71.44
15263;BME280;7733;51.554;13.590;2023-02-18T05:02:54;100677.56;;;9.19;72.31
15263;BME280;7733;51.554;13.590;2023-02-18T05:05:20;100679.31;;;9.21;71.70
15263;BME280;7733;51.554;13.590;2023-02-18T05:07:46;100676.66;;;9.29;71.99
15263;BME280;7733;51.554;13.590;2023-02-18T05:10:16;100678.44;;;9.22;72.75
15263;BME280;7733;51.554;13.590;2023-02-18T05:12:42;100680.25;;;9.05;73.01
15263;BME280;7733;51.554;13.590;2023-02-18T05:15:08;100676.75;;;9.07;73.77
15263;BME280;7733;51.554;13.590;2023-02-18T05:17:34;100674.13;;;9.07;73.66
15263;BME280;7733;51.554;13.590;2023-02-18T05:20:00;100663.63;;;9.13;73.61
15263;BME280;7733;51.554;13.590;2023-02-18T05:22:26;100663.63;;;9.12;74.09
15263;BME280;7733;51.554;13.590;2023-02-18T05:24:52;100658.44;;;9.06;74.52
15263;BME280;7733;51.554;13.590;2023-02-18T05:27:17;100658.38;;;9.13;74.63
15263;BME280;7733;51.554;13.590;2023-02-18T05:29:43;100647.91;;;9.17;74.27
15263;BME280;7733;51.554;13.590;2023-02-18T05:32:09;100655.78;;;9.12;74.52
15263;BME280;7733;51.554;13.590;2023-02-18T05:34:35;100648.84;;;9.05;75.47
15263;BME280;7733;51.554;13.590;2023-02-18T05:37:00;100656.63;;;9.17;75.37
15263;BME280;7733;51.554;13.590;2023-02-18T05:39:26;100645.28;;;9.23;75.07
15263;BME280;7733;51.554;13.590;2023-02-18T05:41:52;100650.56;;;9.09;76.08
15263;BME280;7733;51.554;13.590;2023-02-18T05:44:18;100642.66;;;9.17;75.17
15263;BME280;7733;51.554;13.590;2023-02-18T05:47:01;100640.91;;;9.20;74.98
15263;BME280;7733;51.554;13.590;2023-02-18T05:49:29;100647.94;;;9.12;75.75
15263;BME280;7733;51.554;13.590;2023-02-18T05:51:56;100647.03;;;9.19;75.35
15263;BME280;7733;51.554;13.590;2023-02-18T05:54:22;100640.06;;;9.21;75.54
15263;BME280;7733;51.554;13.590;2023-02-18T05:56:48;100642.63;;;9.29;74.94
15263;BME280;7733;51.554;13.590;2023-02-18T05:59:14;100645.38;;;9.03;75.90
15263;BME280;7733;51.554;13.590;2023-02-18T06:01:40;100642.69;;;9.21;76.06
15263;BME280;7733;51.554;13.590;2023-02-18T06:04:06;100651.41;;;9.17;76.18
15263;BME280;7733;51.554;13.590;2023-02-18T06:06:33;100641.75;;;9.30;75.41
15263;BME280;7733;51.554;13.590;2023-02-18T06:08:59;100638.25;;;9.29;75.74
15263;BME280;7733;51.554;13.590;2023-02-18T06:11:24;100636.50;;;9.34;76.12
15263;BME280;7733;51.554;13.590;2023-02-18T06:13:50;100629.59;;;9.21;76.72
15263;BME280;7733;51.554;13.590;2023-02-18T06:16:16;100626.94;;;9.27;76.50
15263;BME280;7733;51.554;13.590;2023-02-18T06:18:41;100633.94;;;9.25;77.24
15263;BME280;7733;51.554;13.590;2023-02-18T06:21:07;100640.06;;;9.21;78.17
15263;BME280;7733;51.554;13.590;2023-02-18T06:23:33;100633.00;;;9.32;77.95
15263;BME280;7733;51.554;13.590;2023-02-18T06:25:59;100630.38;;;9.34;78.33
15263;BME280;7733;51.554;13.590;2023-02-18T06:28:24;100628.63;;;9.42;78.66
15263;BME280;7733;51.554;13.590;2023-02-18T06:30:50;100629.56;;;9.24;79.39
15263;BME280;7733;51.554;13.590;2023-02-18T06:33:16;100633.84;;;9.36;79.34
15263;BME280;7733;51.554;13.590;2023-02-18T06:35:51;100628.69;;;9.28;80.29
15263;BME280;7733;51.554;13.590;2023-02-18T06:38:17;100631.25;;;9.36;79.40
15263;BME280;7733;51.554;13.590;2023-02-18T06:40:46;100629.59;;;9.21;79.75
15263;BME280;7733;51.554;13.590;2023-02-18T06:43:12;100627.81;;;9.20;79.69
15263;BME280;7733;51.554;13.590;2023-02-18T06:45:39;100622.69;;;9.05;81.38
15263;BME280;7733;51.554;13.590;2023-02-18T06:48:05;100634.03;;;9.04;82.63
15263;BME280;7733;51.554;13.590;2023-02-18T06:50:31;100630.47;;;9.17;83.21
15263;BME280;7733;51.554;13.590;2023-02-18T06:52:56;100623.53;;;8.99;84.16
15263;BME280;7733;51.554;13.590;2023-02-18T06:55:24;100640.09;;;9.12;85.39
15263;BME280;7733;51.554;13.590;2023-02-18T06:57:50;100633.19;;;8.90;88.11
15263;BME280;7733;51.554;13.590;2023-02-18T07:00:16;100625.41;;;8.71;90.25
15263;BME280;7733;51.554;13.590;2023-02-18T07:02:42;100627.91;;;8.99;90.86
15263;BME280;7733;51.554;13.590;2023-02-18T07:05:08;100634.88;;;9.00;92.71
15263;BME280;7733;51.554;13.590;2023-02-18T07:07:34;100626.16;;;8.98;94.02
15263;BME280;7733;51.554;13.590;2023-02-18T07:09:59;100618.34;;;9.02;95.62
15263;BME280;7733;51.554;13.590;2023-02-18T07:12:25;100615.78;;;8.86;96.17
15263;BME280;7733;51.554;13.590;2023-02-18T07:14:51;100620.19;;;8.68;97.52
15263;BME280;7733;51.554;13.590;2023-02-18T07:17:18;100611.41;;;8.77;98.07
15263;BME280;7733;51.554;13.590;2023-02-18T07:19:43;100595.72;;;8.84;98.99
15263;BME280;7733;51.554;13.590;2023-02-18T07:22:10;100599.13;;;9.03;97.49
15263;BME280;7733;51.554;13.590;2023-02-18T07:24:35;100587.88;;;8.84;98.56
15263;BME280;7733;51.554;13.590;2023-02-18T07:27:02;100591.34;;;8.87;98.64
15263;BME280;7733;51.554;13.590;2023-02-18T07:29:27;100589.56;;;8.95;98.60
15263;BME280;7733;51.554;13.590;2023-02-18T07:31:53;100599.22;;;8.77;100.00
15263;BME280;7733;51.554;13.590;2023-02-18T07:34:19;100588.63;;;9.09;100.00
15263;BME280;7733;51.554;13.590;2023-02-18T07:36:45;100581.69;;;9.02;100.00
15263;BME280;7733;51.554;13.590;2023-02-18T07:39:11;100575.59;;;8.96;100.00
15263;BME280;7733;51.554;13.590;2023-02-18T07:41:37;100575.59;;;9.02;100.00
15263;BME280;7733;51.554;13.590;2023-02-18T07:44:03;100569.31;;;9.32;100.00
15263;BME280;7733;51.554;13.590;2023-02-18T07:46:29;100556.31;;;9.23;100.00
15263;BME280;7733;51.554;13.590;2023-02-18T07:48:56;100565.97;;;9.08;100.00
15263;BME280;7733;51.554;13.590;2023-02-18T07:51:22;100565.13;;;8.99;100.00
15263;BME280;7733;51.554;13.590;2023-02-18T07:53:48;100557.34;;;8.87;100.00
15263;BME280;7733;51.554;13.590;2023-02-18T07:56:14;100558.34;;;8.53;100.00
15263;BME280;7733;51.554;13.590;2023-02-18T07:58:40;100547.84;;;8.69;100.00
15263;BME280;7733;51.554;13.590;2023-02-18T08:01:09;100549.53;;;8.83;100.00
15263;BME280;7733;51.554;13.590;2023-02-18T08:03:37;100544.28;;;8.77;100.00
15263;BME280;7733;51.554;13.590;2023-02-18T08:06:04;100549.53;;;8.77;100.00
15263;BME280;7733;51.554;13.590;2023-02-18T08:08:31;100542.50;;;8.92;100.00
15263;BME280;7733;51.554;13.590;2023-02-18T08:11:00;100530.28;;;8.91;100.00
15263;BME280;7733;51.554;13.590;2023-02-18T08:13:28;100520.66;;;8.96;100.00
15263;BME280;7733;51.554;13.590;2023-02-18T08:15:55;100526.94;;;8.55;100.00
15263;BME280;7733;51.554;13.590;2023-02-18T08:18:23;100516.41;;;8.73;100.00
15263;BME280;7733;51.554;13.590;2023-02-18T08:20:50;100495.06;;;9.40;100.00
15263;BME280;7733;51.554;13.590;2023-02-18T08:23:20;100505.72;;;9.22;100.00
15263;BME280;7733;51.554;13.590;2023-02-18T08:25:52;100495.16;;;9.30;100.00
15263;BME280;7733;51.554;13.590;2023-02-18T08:28:22;100493.63;;;9.01;100.00
15263;BME280;7733;51.554;13.590;2023-02-18T08:30:52;100482.00;;;9.43;100.00
15263;BME280;7733;51.554;13.590;2023-02-18T08:33:19;100487.16;;;9.50;100.00
15263;BME280;7733;51.554;13.590;2023-02-18T08:35:47;100484.47;;;9.59;100.00
15263;BME280;7733;51.554;13.590;2023-02-18T08:38:13;100482.56;;;9.76;100.00
15263;BME280;7733;51.554;13.590;2023-02-18T08:40:39;100477.56;;;9.52;100.00
15263;BME280;7733;51.554;13.590;2023-02-18T08:43:07;100481.06;;;9.51;100.00
15263;BME280;7733;51.554;13.590;2023-02-18T08:45:33;100471.13;;;9.88;100.00
15263;BME280;7733;51.554;13.590;2023-02-18T08:47:58;100471.03;;;9.95;100.00
15263;BME280;7733;51.554;13.590;2023-02-18T08:50:26;100463.34;;;9.77;100.00
15263;BME280;7733;51.554;13.590;2023-02-18T08:52:52;100461.44;;;9.94;100.00
15263;BME280;7733;51.554;13.590;2023-02-18T08:55:18;100458.72;;;10.03;99.69
15263;BME280;7733;51.554;13.590;2023-02-18T08:57:49;100457.88;;;10.01;100.00
15263;BME280;7733;51.554;13.590;2023-02-18T09:00:17;100452.59;;;10.04;100.00
15263;BME280;7733;51.554;13.590;2023-02-18T09:02:43;100435.84;;;10.22;99.56
15263;BME280;7733;51.554;13.590;2023-02-18T09:05:09;100431.38;;;10.29;99.37
15263;BME280;7733;51.554;13.590;2023-02-18T09:07:36;100428.03;;;10.13;99.82
15263;BME280;7733;51.554;13.590;2023-02-18T09:10:03;100421.09;;;10.11;100.00
15263;BME280;7733;51.554;13.590;2023-02-18T09:12:29;100419.81;;;9.67;100.00
15263;BME280;7733;51.554;13.590;2023-02-18T09:14:55;100414.34;;;9.88;100.00
15263;BME280;7733;51.554;13.590;2023-02-18T09:17:21;100405.84;;;9.66;100.00
15263;BME280;7733;51.554;13.590;2023-02-18T09:19:46;100404.72;;;9.89;100.00
15263;BME280;7733;51.554;13.590;2023-02-18T09:22:12;100401.09;;;10.02;100.00
15263;BME280;7733;51.554;13.590;2023-02-18T09:24:40;100395.63;;;10.19;100.00
15263;BME280;7733;51.554;13.590;2023-02-18T09:27:07;100389.66;;;10.07;100.00
15263;BME280;7733;51.554;13.590;2023-02-18T09:29:36;100385.81;;;9.64;100.00
15263;BME280;7733;51.554;13.590;2023-02-18T09:32:03;100368.63;;;10.14;100.00
15263;BME280;7733;51.554;13.590;2023-02-18T09:34:29;100371.41;;;10.01;100.00
15263;BME280;7733;51.554;13.590;2023-02-18T09:36:55;100362.44;;;10.21;100.00
15263;BME280;7733;51.554;13.590;2023-02-18T09:39:21;100367.88;;;10.01;100.00
15263;BME280;7733;51.554;13.590;2023-02-18T09:41:53;100357.13;;;10.28;100.00
15263;BME280;7733;51.554;13.590;2023-02-18T09:44:35;100347.59;;;10.17;100.00
15263;BME280;7733;51.554;13.590;2023-02-18T09:47:39;100344.97;;;10.18;100.00
15263;BME280;7733;51.554;13.590;2023-02-18T09:50:14;100334.03;;;9.87;100.00
15263;BME280;7733;51.554;13.590;2023-02-18T09:52:42;100340.22;;;9.82;100.00
15263;BME280;7733;51.554;13.590;2023-02-18T09:55:27;100332.47;;;9.71;100.00
15263;BME280;7733;51.554;13.590;2023-02-18T09:58:00;100325.22;;;9.91;100.00
15263;BME280;7733;51.554;13.590;2023-02-18T10:00:36;100309.69;;;9.76;100.00
15263;BME280;7733;51.554;13.590;2023-02-18T10:05:49;100312.72;;;9.39;100.00
15263;BME280;7733;51.554;13.590;2023-02-18T10:08:27;100296.66;;;9.71;100.00
15263;BME280;7733;51.554;13.590;2023-02-18T10:10:54;100292.78;;;9.29;100.00
15263;BME280;7733;51.554;13.590;2023-02-18T10:13:24;100285.03;;;9.15;100.00
15263;BME280;7733;51.554;13.590;2023-02-18T10:15:51;100284.00;;;9.33;100.00
15263;BME280;7733;51.554;13.590;2023-02-18T10:18:34;100274.88;;;9.68;100.00
15263;BME280;7733;51.554;13.590;2023-02-18T10:21:42;100273.66;;;9.23;100.00
15263;BME280;7733;51.554;13.590;2023-02-18T10:25:02;100264.59;;;9.53;100.00
15263;BME280;7733;51.554;13.590;2023-02-18T10:27:31;100257.25;;;9.82;100.00
15263;BME280;7733;51.554;13.590;2023-02-18T10:32:43;100244.88;;;9.23;100.00
15263;BME280;7733;51.554;13.590;2023-02-18T10:35:40;100232.56;;;9.29;100.00
15263;BME280;7733;51.554;13.590;2023-02-18T10:38:37;100228.09;;;9.39;100.00
15263;BME280;7733;51.554;13.590;2023-02-18T10:50:02;100195.72;;;9.46;100.00
15263;BME280;7733;51.554;13.590;2023-02-18T10:52:40;100186.09;;;9.50;100.00
15263;BME280;7733;51.554;13.590;2023-02-18T10:55:12;100168.41;;;9.67;100.00
15263;BME280;7733;51.554;13.590;2023-02-18T10:57:54;100163.47;;;9.41;100.00
15263;BME280;7733;51.554;13.590;2023-02-18T11:00:23;100161.28;;;9.75;100.00
15263;BME280;7733;51.554;13.590;2023-02-18T11:03:22;100146.06;;;9.40;100.00
15263;BME280;7733;51.554;13.590;2023-02-18T11:05:53;100131.78;;;9.61;100.00
15263;BME280;7733;51.554;13.590;2023-02-18T11:08:25;100132.72;;;9.58;100.00
15263;BME280;7733;51.554;13.590;2023-02-18T11:10:53;100131.91;;;9.55;100.00
15263;BME280;7733;51.554;13.590;2023-02-18T11:13:40;100124.81;;;9.63;100.00
15263;BME280;7733;51.554;13.590;2023-02-18T11:16:06;100135.09;;;9.75;100.00
15263;BME280;7733;51.554;13.590;2023-02-18T11:18:44;100115.97;;;9.70;100.00
15263;BME280;7733;51.554;13.590;2023-02-18T11:21:34;100105.94;;;9.96;100.00
15263;BME280;7733;51.554;13.590;2023-02-18T11:24:15;100106.75;;;10.01;100.00
15263;BME280;7733;51.554;13.590;2023-02-18T11:26:42;100096.00;;;10.17;100.00
15263;BME280;7733;51.554;13.590;2023-02-18T11:29:23;100090.50;;;10.33;100.00
15263;BME280;7733;51.554;13.590;2023-02-18T11:31:54;100079.00;;;10.42;100.00
15263;BME280;7733;51.554;13.590;2023-02-18T11:34:31;100072.69;;;10.52;100.00
15263;BME280;7733;51.554;13.590;2023-02-18T11:37:17;100064.66;;;10.61;100.00
15263;BME280;7733;51.554;13.590;2023-02-18T11:39:48;100063.38;;;10.82;100.00
15263;BME280;7733;51.554;13.590;2023-02-18T11:42:18;100057.81;;;10.96;100.00
15263;BME280;7733;51.554;13.590;2023-02-18T11:45:26;100057.63;;;11.05;100.00
15263;BME280;7733;51.554;13.590;2023-02-18T11:50:38;100045.25;;;11.10;100.00
15263;BME280;7733;51.554;13.590;2023-02-18T11:53:34;100028.44;;;11.19;100.00
15263;BME280;7733;51.554;13.590;2023-02-18T11:56:04;100029.19;;;11.25;100.00
15263;BME280;7733;51.554;13.590;2023-02-18T11:58:42;100023.88;;;11.28;100.00
15263;BME280;7733;51.554;13.590;2023-02-18T12:01:45;100019.75;;;11.54;100.00
15263;BME280;7733;51.554;13.590;2023-02-18T12:04:20;100023.38;;;11.50;100.00
15263;BME280;7733;51.554;13.590;2023-02-18T12:07:00;100018.81;;;11.56;100.00
15263;BME280;7733;51.554;13.590;2023-02-18T12:09:37;100017.91;;;11.57;100.00
15263;BME280;7733;51.554;13.590;2023-02-18T12:12:35;100002.56;;;11.76;100.00
15263;BME280;7733;51.554;13.590;2023-02-18T12:15:08;100013.94;;;11.78;100.00
15263;BME280;7733;51.554;13.590;2023-02-18T12:18:32;99991.09;;;11.80;100.00
15263;BME280;7733;51.554;13.590;2023-02-18T12:24:30;100000.25;;;12.00;100.00
15263;BME280;7733;51.554;13.590;2023-02-18T12:27:19;99991.34;;;12.05;100.00
15263;BME280;7733;51.554;13.590;2023-02-18T12:33:54;99982.16;;;12.20;100.00
15263;BME280;7733;51.554;13.590;2023-02-18T12:37:04;99982.06;;;12.25;100.00
15263;BME280;7733;51.554;13.590;2023-02-18T12:43:16;99977.81;;;12.19;100.00
15263;BME280;7733;51.554;13.590;2023-02-18T12:48:54;99990.91;;;12.21;100.00
15263;BME280;7733;51.554;13.590;2023-02-18T12:51:42;99978.50;;;12.27;100.00
15263;BME280;7733;51.554;13.590;2023-02-18T12:55:01;99967.16;;;12.25;100.00
15263;BME280;7733;51.554;13.590;2023-02-18T13:07:19;99964.63;;;12.22;100.00
15263;BME280;7733;51.554;13.590;2023-02-18T13:12:59;99966.47;;;12.17;100.00
15263;BME280;7733;51.554;13.590;2023-02-18T13:18:02;99973.13;;;11.98;100.00
15263;BME280;7733;51.554;13.590;2023-02-18T13:20:42;99975.94;;;11.92;100.00
15263;BME280;7733;51.554;13.590;2023-02-18T13:23:52;99978.56;;;11.92;100.00
15263;BME280;7733;51.554;13.590;2023-02-18T13:26:21;99978.81;;;11.82;100.00
15263;BME280;7733;51.554;13.590;2023-02-18T13:35:15;99983.25;;;11.79;100.00
15263;BME280;7733;51.554;13.590;2023-02-18T13:38:30;99981.44;;;11.82;100.00
15263;BME280;7733;51.554;13.590;2023-02-18T13:40:59;99971.72;;;11.86;100.00
15263;BME280;7733;51.554;13.590;2023-02-18T13:43:34;99976.19;;;11.81;100.00
15263;BME280;7733;51.554;13.590;2023-02-18T13:46:10;99970.13;;;11.77;100.00
15263;BME280;7733;51.554;13.590;2023-02-18T13:48:51;99977.00;;;11.84;100.00
15263;BME280;7733;51.554;13.590;2023-02-18T13:56:43;99998.94;;;11.83;100.00
15263;BME280;7733;51.554;13.590;2023-02-18T13:59:16;99977.00;;;11.84;100.00
15263;BME280;7733;51.554;13.590;2023-02-18T14:01:47;99996.41;;;11.79;100.00
15263;BME280;7733;51.554;13.590;2023-02-18T14:07:37;99993.81;;;11.76;100.00
15263;BME280;7733;51.554;13.590;2023-02-18T14:25:54;99993.44;;;11.18;100.00
15263;BME280;7733;51.554;13.590;2023-02-18T14:33:34;100000.78;;;11.04;100.00
15263;BME280;7733;51.554;13.590;2023-02-18T14:48:44;99996.06;;;11.18;100.00
15263;BME280;7733;51.554;13.590;2023-02-18T14:51:20;100013.56;;;11.19;100.00
15263;BME280;7733;51.554;13.590;2023-02-18T14:53:47;100006.56;;;11.18;100.00
15263;BME280;7733;51.554;13.590;2023-02-18T14:56:17;100025.78;;;11.20;100.00
15263;BME280;7733;51.554;13.590;2023-02-18T14:58:51;100024.06;;;11.19;100.00
15263;BME280;7733;51.554;13.590;2023-02-18T15:01:30;100027.66;;;11.15;100.00
15263;BME280;7733;51.554;13.590;2023-02-18T15:03:56;100036.34;;;11.17;100.00
15263;BME280;7733;51.554;13.590;2023-02-18T15:06:33;100039.72;;;11.24;100.00
15263;BME280;7733;51.554;13.590;2023-02-18T15:09:11;100025.59;;;11.30;100.00
15263;BME280;7733;51.554;13.590;2023-02-18T15:11:46;100038.81;;;11.25;100.00
15263;BME280;7733;51.554;13.590;2023-02-18T15:14:23;100038.03;;;11.21;100.00
15263;BME280;7733;51.554;13.590;2023-02-18T15:16:50;100032.72;;;11.24;100.00
15263;BME280;7733;51.554;13.590;2023-02-18T15:19:21;100025.34;;;11.39;100.00
15263;BME280;7733;51.554;13.590;2023-02-18T15:21:52;100023.78;;;11.32;100.00